Webcam

2019/05/20 23:20 EBBR 202320Z 30009KT 1700 BR BKN002 10/10 Q1012 TEMPO 0800 FG BKN001

Webcam

--- Refresh now ---